BTK7112 WIEE-WIII
Flight info
| Callsign | BTK7112 |
|---|---|
| Flight time | 1h 31m |
| Altitude | 35000 |
| Route | BEPNO1D BEPNO T7 TOPUK T5 BUNIK DCT |
| Aircraft | A20N/M-SDE2E3FGHIRWXY/LB1 |
Departure
| Time | 2026-05-08 09:55 |
|---|---|
| Airport | Minangkabau International Airport (WIEE) |
Arrival
| Time | 2026-05-08 11:26 |
|---|---|
| Airport | Soekarno-Hatta International Airport (WIII) |
| Time | Latitude | Longitude | Altitude | Speed | Heading |
|---|---|---|---|---|---|
| 2026-05-08 09:33 | -0.78581 | 100.28477 | 37 ft | 0 kts | 65° |
| 2026-05-08 09:45 | -0.78585 | 100.28469 | 37 ft | 2 kts | 65° |
| 2026-05-08 09:45 | -0.78592 | 100.28455 | 38 ft | 2 kts | 65° |
| 2026-05-08 09:46 | -0.78598 | 100.28440 | 38 ft | 2 kts | 65° |
| 2026-05-08 09:46 | -0.78605 | 100.28426 | 38 ft | 2 kts | 65° |
| 2026-05-08 09:46 | -0.78612 | 100.28412 | 38 ft | 2 kts | 73° |
| 2026-05-08 09:46 | -0.78612 | 100.28395 | 38 ft | 2 kts | 102° |
| 2026-05-08 09:47 | -0.78606 | 100.28381 | 38 ft | 2 kts | 128° |
| 2026-05-08 09:47 | -0.78594 | 100.28370 | 38 ft | 2 kts | 153° |
| 2026-05-08 09:47 | -0.78581 | 100.28365 | 38 ft | 1 kts | 155° |
| 2026-05-08 09:47 | -0.78578 | 100.28364 | 38 ft | 0 kts | 154° |
| 2026-05-08 09:50 | -0.78582 | 100.28365 | 38 ft | 1 kts | 155° |
| 2026-05-08 09:50 | -0.78593 | 100.28371 | 38 ft | 2 kts | 155° |
| 2026-05-08 09:51 | -0.78612 | 100.28379 | 38 ft | 3 kts | 155° |
| 2026-05-08 09:51 | -0.78646 | 100.28396 | 37 ft | 8 kts | 153° |
| 2026-05-08 09:51 | -0.78716 | 100.28428 | 36 ft | 13 kts | 156° |
| 2026-05-08 09:51 | -0.78805 | 100.28468 | 35 ft | 14 kts | 155° |
| 2026-05-08 09:52 | -0.78895 | 100.28458 | 35 ft | 14 kts | 237° |
| 2026-05-08 09:52 | -0.78941 | 100.28357 | 35 ft | 17 kts | 245° |
| 2026-05-08 09:52 | -0.79002 | 100.28256 | 35 ft | 17 kts | 212° |
| 2026-05-08 09:52 | -0.79124 | 100.28281 | 32 ft | 19 kts | 155° |
| 2026-05-08 09:53 | -0.79269 | 100.28348 | 31 ft | 29 kts | 156° |
| 2026-05-08 09:53 | -0.79497 | 100.28452 | 29 ft | 41 kts | 155° |
| 2026-05-08 09:53 | -0.79715 | 100.28564 | 28 ft | 23 kts | 144° |
| 2026-05-08 09:53 | -0.79794 | 100.28620 | 26 ft | 12 kts | 185° |
| 2026-05-08 09:54 | -0.79784 | 100.28593 | 26 ft | 7 kts | 330° |
| 2026-05-08 09:54 | -0.79733 | 100.28566 | 27 ft | 16 kts | 334° |
| 2026-05-08 09:54 | -0.79380 | 100.28404 | 30 ft | 91 kts | 335° |
| 2026-05-08 09:54 | -0.78602 | 100.28046 | 42 ft | 150 kts | 335° |
| 2026-05-08 09:55 | -0.77555 | 100.27564 | 347 ft | 172 kts | 335° |
| 2026-05-08 09:55 | -0.76494 | 100.27074 | 986 ft | 170 kts | 335° |
| 2026-05-08 09:55 | -0.75417 | 100.26580 | 1638 ft | 169 kts | 335° |
| 2026-05-08 09:55 | -0.74325 | 100.26081 | 2067 ft | 178 kts | 335° |
| 2026-05-08 09:56 | -0.73147 | 100.25542 | 2418 ft | 195 kts | 335° |
| 2026-05-08 09:56 | -0.71842 | 100.24945 | 2732 ft | 218 kts | 335° |
| 2026-05-08 09:56 | -0.70418 | 100.24293 | 3170 ft | 236 kts | 335° |
| 2026-05-08 09:56 | -0.68876 | 100.23586 | 3820 ft | 245 kts | 335° |
| 2026-05-08 09:57 | -0.65709 | 100.22134 | 5514 ft | 249 kts | 335° |
| 2026-05-08 09:57 | -0.64238 | 100.21222 | 6314 ft | 252 kts | 313° |
| 2026-05-08 09:57 | -0.63358 | 100.19700 | 7142 ft | 254 kts | 284° |
| 2026-05-08 09:58 | -0.63330 | 100.17938 | 7968 ft | 258 kts | 256° |
| 2026-05-08 09:58 | -0.63988 | 100.16299 | 8801 ft | 260 kts | 246° |
| 2026-05-08 09:58 | -0.64778 | 100.14677 | 9617 ft | 263 kts | 245° |
| 2026-05-08 09:58 | -0.65579 | 100.13036 | 10438 ft | 265 kts | 245° |
| 2026-05-08 09:59 | -0.66377 | 100.11370 | 11259 ft | 267 kts | 245° |
| 2026-05-08 09:59 | -0.67162 | 100.09708 | 12057 ft | 269 kts | 246° |
| 2026-05-08 09:59 | -0.68118 | 100.08105 | 12819 ft | 274 kts | 228° |
| 2026-05-08 09:59 | -0.69675 | 100.07005 | 13544 ft | 282 kts | 202° |
| 2026-05-08 10:00 | -0.71603 | 100.06696 | 14239 ft | 290 kts | 176° |
| 2026-05-08 10:00 | -0.73530 | 100.07277 | 14920 ft | 298 kts | 154° |
| 2026-05-08 10:00 | -0.75338 | 100.08292 | 15625 ft | 302 kts | 151° |
| 2026-05-08 10:00 | -0.77157 | 100.09368 | 16296 ft | 306 kts | 151° |
| 2026-05-08 10:01 | -0.78996 | 100.10438 | 16968 ft | 310 kts | 151° |
| 2026-05-08 10:01 | -0.80818 | 100.11541 | 17581 ft | 315 kts | 143° |
| 2026-05-08 10:01 | -0.82306 | 100.13219 | 17875 ft | 332 kts | 117° |
| 2026-05-08 10:01 | -0.82961 | 100.15530 | 18156 ft | 346 kts | 90° |
| 2026-05-08 10:02 | -0.82544 | 100.17954 | 18442 ft | 357 kts | 69° |
| 2026-05-08 10:02 | -0.81616 | 100.20328 | 18728 ft | 371 kts | 66° |
| 2026-05-08 10:02 | -0.80578 | 100.22890 | 19003 ft | 386 kts | 66° |
| 2026-05-08 10:02 | -0.79649 | 100.25507 | 19242 ft | 402 kts | 76° |
| 2026-05-08 10:03 | -0.79469 | 100.28375 | 19631 ft | 413 kts | 96° |
| 2026-05-08 10:03 | -0.80259 | 100.31207 | 20252 ft | 416 kts | 113° |
| 2026-05-08 10:03 | -0.81567 | 100.33893 | 20904 ft | 418 kts | 116° |
| 2026-05-08 10:03 | -0.82973 | 100.36607 | 21446 ft | 422 kts | 116° |
| 2026-05-08 10:04 | -0.84374 | 100.39351 | 21993 ft | 426 kts | 116° |
| 2026-05-08 10:04 | -0.85755 | 100.42115 | 22542 ft | 429 kts | 115° |
| 2026-05-08 10:04 | -0.87068 | 100.44807 | 23058 ft | 431 kts | 115° |
| 2026-05-08 10:04 | -0.88482 | 100.47517 | 23557 ft | 435 kts | 120° |
| 2026-05-08 10:05 | -0.90185 | 100.50173 | 24071 ft | 438 kts | 123° |
| 2026-05-08 10:05 | -0.91971 | 100.52819 | 24555 ft | 441 kts | 123° |
| 2026-05-08 10:05 | -0.93757 | 100.55468 | 25019 ft | 443 kts | 123° |
| 2026-05-08 10:05 | -0.95562 | 100.58176 | 25477 ft | 446 kts | 122° |
| 2026-05-08 10:06 | -0.97359 | 100.60898 | 25922 ft | 448 kts | 122° |
| 2026-05-08 10:06 | -0.99151 | 100.63628 | 26369 ft | 450 kts | 122° |
| 2026-05-08 10:06 | -1.00920 | 100.66338 | 26810 ft | 451 kts | 122° |
| 2026-05-08 10:06 | -1.02710 | 100.69098 | 27239 ft | 453 kts | 121° |
| 2026-05-08 10:07 | -1.04526 | 100.71903 | 27665 ft | 454 kts | 121° |
| 2026-05-08 10:07 | -1.06338 | 100.74698 | 28078 ft | 455 kts | 121° |
| 2026-05-08 10:07 | -1.08153 | 100.77505 | 28503 ft | 455 kts | 123° |
| 2026-05-08 10:07 | -1.09957 | 100.80302 | 29051 ft | 451 kts | 123° |
| 2026-05-08 10:08 | -1.11732 | 100.83021 | 29356 ft | 453 kts | 123° |
| 2026-05-08 10:08 | -1.13563 | 100.85810 | 29683 ft | 453 kts | 123° |
| 2026-05-08 10:08 | -1.15364 | 100.88557 | 30083 ft | 452 kts | 123° |
| 2026-05-08 10:08 | -1.17144 | 100.91279 | 30487 ft | 451 kts | 123° |
| 2026-05-08 10:09 | -1.18895 | 100.93961 | 30874 ft | 450 kts | 123° |
| 2026-05-08 10:09 | -1.20705 | 100.96738 | 31263 ft | 449 kts | 123° |
| 2026-05-08 10:09 | -1.22473 | 100.99455 | 31622 ft | 448 kts | 123° |
| 2026-05-08 10:09 | -1.24250 | 101.02187 | 31968 ft | 447 kts | 123° |
| 2026-05-08 10:10 | -1.26027 | 101.04919 | 32303 ft | 447 kts | 123° |
| 2026-05-08 10:10 | -1.27795 | 101.07639 | 32628 ft | 446 kts | 123° |
| 2026-05-08 10:10 | -1.29567 | 101.10363 | 32946 ft | 445 kts | 123° |
| 2026-05-08 10:10 | -1.31381 | 101.13152 | 33241 ft | 445 kts | 123° |
| 2026-05-08 10:11 | -1.33184 | 101.15926 | 33479 ft | 446 kts | 122° |
| 2026-05-08 10:11 | -1.34996 | 101.18713 | 33685 ft | 447 kts | 122° |
| 2026-05-08 10:11 | -1.36808 | 101.21501 | 33886 ft | 448 kts | 122° |
| 2026-05-08 10:11 | -1.38611 | 101.24275 | 34081 ft | 449 kts | 122° |
| 2026-05-08 10:12 | -1.40408 | 101.27039 | 34269 ft | 450 kts | 122° |
| 2026-05-08 10:12 | -1.42215 | 101.29820 | 34451 ft | 451 kts | 122° |
| 2026-05-08 10:12 | -1.44021 | 101.32599 | 34626 ft | 451 kts | 122° |
| 2026-05-08 10:12 | -1.45860 | 101.35429 | 34791 ft | 452 kts | 122° |
| 2026-05-08 10:13 | -1.49355 | 101.40807 | 34813 ft | 453 kts | 122° |
| 2026-05-08 10:13 | -1.52844 | 101.46178 | 34816 ft | 453 kts | 122° |
| 2026-05-08 10:14 | -1.56367 | 101.51601 | 34817 ft | 453 kts | 122° |
| 2026-05-08 10:14 | -1.59985 | 101.57169 | 34817 ft | 453 kts | 122° |
| 2026-05-08 10:15 | -1.63583 | 101.62708 | 34817 ft | 453 kts | 122° |
| 2026-05-08 10:15 | -1.67093 | 101.68124 | 34818 ft | 453 kts | 122° |
| 2026-05-08 10:16 | -1.70622 | 101.73585 | 34818 ft | 453 kts | 122° |
| 2026-05-08 10:16 | -1.74130 | 101.78999 | 34817 ft | 453 kts | 122° |
| 2026-05-08 10:17 | -1.77649 | 101.84423 | 34817 ft | 453 kts | 122° |
| 2026-05-08 10:17 | -1.81168 | 101.89844 | 34817 ft | 453 kts | 122° |
| 2026-05-08 10:18 | -1.84693 | 101.95274 | 34817 ft | 453 kts | 122° |
| 2026-05-08 10:18 | -1.88225 | 102.00715 | 34817 ft | 453 kts | 122° |
| 2026-05-08 10:19 | -1.91743 | 102.06133 | 34817 ft | 453 kts | 122° |
| 2026-05-08 10:20 | -1.96980 | 102.14202 | 34817 ft | 453 kts | 122° |
| 2026-05-08 10:20 | -2.00475 | 102.19587 | 34818 ft | 453 kts | 122° |
| 2026-05-08 10:21 | -2.04007 | 102.25030 | 34817 ft | 453 kts | 122° |
| 2026-05-08 10:21 | -2.07500 | 102.30414 | 34817 ft | 453 kts | 122° |
| 2026-05-08 10:22 | -2.10994 | 102.35793 | 34818 ft | 453 kts | 123° |
| 2026-05-08 10:22 | -2.14493 | 102.41138 | 34817 ft | 453 kts | 123° |
| 2026-05-08 10:23 | -2.17981 | 102.46488 | 34818 ft | 453 kts | 122° |
| 2026-05-08 10:23 | -2.21447 | 102.51821 | 34817 ft | 453 kts | 122° |
| 2026-05-08 10:24 | -2.24930 | 102.57187 | 34817 ft | 453 kts | 122° |
| 2026-05-08 10:24 | -2.28432 | 102.62587 | 34817 ft | 453 kts | 122° |
| 2026-05-08 10:25 | -2.31878 | 102.67911 | 34818 ft | 453 kts | 122° |
| 2026-05-08 10:25 | -2.35334 | 102.73270 | 34817 ft | 453 kts | 122° |
| 2026-05-08 10:26 | -2.38846 | 102.78702 | 34817 ft | 453 kts | 122° |
| 2026-05-08 10:26 | -2.42376 | 102.84153 | 34817 ft | 453 kts | 122° |
| 2026-05-08 10:27 | -2.45944 | 102.89658 | 34818 ft | 453 kts | 122° |
| 2026-05-08 10:27 | -2.49517 | 102.95173 | 34817 ft | 453 kts | 122° |
| 2026-05-08 10:28 | -2.53070 | 103.00654 | 34817 ft | 453 kts | 122° |
| 2026-05-08 10:28 | -2.56643 | 103.06169 | 34818 ft | 453 kts | 122° |
| 2026-05-08 10:29 | -2.60189 | 103.11645 | 34817 ft | 453 kts | 122° |
| 2026-05-08 10:29 | -2.63715 | 103.17089 | 34817 ft | 453 kts | 122° |
| 2026-05-08 10:30 | -2.67265 | 103.22571 | 34817 ft | 453 kts | 122° |
| 2026-05-08 10:30 | -2.70823 | 103.28067 | 34817 ft | 453 kts | 122° |
| 2026-05-08 10:31 | -2.74352 | 103.33520 | 34817 ft | 453 kts | 122° |
| 2026-05-08 10:31 | -2.77891 | 103.38986 | 34817 ft | 453 kts | 122° |
| 2026-05-08 10:32 | -2.81425 | 103.44444 | 34817 ft | 453 kts | 122° |
| 2026-05-08 10:32 | -2.84988 | 103.49950 | 34817 ft | 453 kts | 122° |
| 2026-05-08 10:33 | -2.88524 | 103.55415 | 34817 ft | 453 kts | 122° |
| 2026-05-08 10:33 | -2.92093 | 103.60929 | 34817 ft | 454 kts | 122° |
| 2026-05-08 10:34 | -2.95624 | 103.66389 | 34818 ft | 454 kts | 122° |
| 2026-05-08 10:34 | -2.99187 | 103.71926 | 34817 ft | 455 kts | 122° |
| 2026-05-08 10:35 | -3.02760 | 103.77467 | 34817 ft | 455 kts | 122° |
| 2026-05-08 10:35 | -3.06328 | 103.82990 | 34817 ft | 456 kts | 122° |
| 2026-05-08 10:36 | -3.09892 | 103.88506 | 34817 ft | 456 kts | 122° |
| 2026-05-08 10:36 | -3.13498 | 103.94044 | 34817 ft | 456 kts | 122° |
| 2026-05-08 10:37 | -3.17150 | 103.99659 | 34817 ft | 456 kts | 122° |
| 2026-05-08 10:37 | -3.20727 | 104.05181 | 34817 ft | 456 kts | 122° |
| 2026-05-08 10:38 | -3.24328 | 104.10748 | 34817 ft | 456 kts | 122° |
| 2026-05-08 10:38 | -3.27923 | 104.16311 | 34817 ft | 456 kts | 122° |
| 2026-05-08 10:39 | -3.31480 | 104.21817 | 34817 ft | 456 kts | 122° |
| 2026-05-08 10:39 | -3.35058 | 104.27357 | 34817 ft | 456 kts | 122° |
| 2026-05-08 10:40 | -3.38635 | 104.32896 | 34817 ft | 456 kts | 122° |
| 2026-05-08 10:40 | -3.42196 | 104.38411 | 34817 ft | 456 kts | 122° |
| 2026-05-08 10:41 | -3.45763 | 104.43935 | 34817 ft | 456 kts | 122° |
| 2026-05-08 10:41 | -3.49365 | 104.49515 | 34817 ft | 456 kts | 122° |
| 2026-05-08 10:42 | -3.52938 | 104.55053 | 34817 ft | 456 kts | 122° |
| 2026-05-08 10:42 | -3.56508 | 104.60586 | 34817 ft | 456 kts | 122° |
| 2026-05-08 10:43 | -3.60053 | 104.66082 | 34818 ft | 456 kts | 121° |
| 2026-05-08 10:43 | -3.63590 | 104.71594 | 34818 ft | 456 kts | 121° |
| 2026-05-08 10:44 | -3.67090 | 104.77038 | 34817 ft | 456 kts | 121° |
| 2026-05-08 10:44 | -3.70619 | 104.82518 | 34817 ft | 456 kts | 122° |
| 2026-05-08 10:45 | -3.74161 | 104.88013 | 34817 ft | 456 kts | 122° |
| 2026-05-08 10:45 | -3.77608 | 104.93363 | 34807 ft | 455 kts | 122° |
| 2026-05-08 10:46 | -3.81067 | 104.98732 | 34798 ft | 455 kts | 122° |
| 2026-05-08 10:46 | -3.84554 | 105.04143 | 34792 ft | 455 kts | 122° |
| 2026-05-08 10:47 | -3.88047 | 105.09566 | 34790 ft | 454 kts | 122° |
| 2026-05-08 10:47 | -3.91585 | 105.15061 | 34789 ft | 454 kts | 122° |
| 2026-05-08 10:48 | -3.95110 | 105.20534 | 34789 ft | 454 kts | 122° |
| 2026-05-08 10:48 | -3.98532 | 105.25850 | 34789 ft | 454 kts | 122° |
| 2026-05-08 10:49 | -4.02006 | 105.31245 | 34789 ft | 454 kts | 122° |
| 2026-05-08 10:49 | -4.05493 | 105.36663 | 34789 ft | 454 kts | 122° |
| 2026-05-08 10:50 | -4.08934 | 105.42011 | 34789 ft | 454 kts | 122° |
| 2026-05-08 10:50 | -4.12385 | 105.47350 | 34789 ft | 454 kts | 122° |
| 2026-05-08 10:51 | -4.16067 | 105.53030 | 34789 ft | 454 kts | 122° |
| 2026-05-08 10:51 | -4.19729 | 105.58706 | 34789 ft | 454 kts | 122° |
| 2026-05-08 10:52 | -4.23373 | 105.64369 | 34789 ft | 454 kts | 122° |
| 2026-05-08 10:52 | -4.26970 | 105.69987 | 34789 ft | 454 kts | 122° |
| 2026-05-08 10:53 | -4.30567 | 105.75607 | 34789 ft | 454 kts | 122° |
| 2026-05-08 10:53 | -4.34131 | 105.81159 | 34789 ft | 454 kts | 122° |
| 2026-05-08 10:54 | -4.37660 | 105.86656 | 34791 ft | 454 kts | 122° |
| 2026-05-08 10:54 | -4.41155 | 105.92097 | 34796 ft | 454 kts | 122° |
| 2026-05-08 10:55 | -4.44651 | 105.97540 | 34803 ft | 454 kts | 122° |
| 2026-05-08 10:55 | -4.48065 | 106.02858 | 34809 ft | 454 kts | 122° |
| 2026-05-08 10:56 | -4.51475 | 106.08172 | 34813 ft | 454 kts | 122° |
| 2026-05-08 10:56 | -4.54878 | 106.13474 | 34815 ft | 454 kts | 122° |
| 2026-05-08 10:57 | -4.58270 | 106.18762 | 34815 ft | 454 kts | 122° |
| 2026-05-08 10:57 | -4.63340 | 106.26668 | 34816 ft | 454 kts | 122° |
| 2026-05-08 10:58 | -4.66753 | 106.31992 | 34816 ft | 454 kts | 122° |
| 2026-05-08 10:58 | -4.70154 | 106.37299 | 34816 ft | 454 kts | 122° |
| 2026-05-08 10:59 | -4.73575 | 106.42639 | 34655 ft | 454 kts | 122° |
| 2026-05-08 10:59 | -4.75259 | 106.45270 | 34407 ft | 452 kts | 122° |
| 2026-05-08 10:59 | -4.76966 | 106.47938 | 34154 ft | 450 kts | 122° |
| 2026-05-08 11:00 | -4.78631 | 106.50539 | 33906 ft | 448 kts | 122° |
| 2026-05-08 11:00 | -4.80318 | 106.53174 | 33639 ft | 446 kts | 122° |
| 2026-05-08 11:00 | -4.82048 | 106.55757 | 33191 ft | 447 kts | 126° |
| 2026-05-08 11:00 | -4.83983 | 106.58170 | 32576 ft | 448 kts | 131° |
| 2026-05-08 11:01 | -4.86137 | 106.60392 | 31865 ft | 450 kts | 136° |
| 2026-05-08 11:01 | -4.88525 | 106.62427 | 31103 ft | 451 kts | 142° |
| 2026-05-08 11:01 | -4.91087 | 106.64220 | 30305 ft | 453 kts | 147° |
| 2026-05-08 11:01 | -4.93808 | 106.65765 | 29483 ft | 455 kts | 152° |
| 2026-05-08 11:02 | -4.96636 | 106.67123 | 28674 ft | 456 kts | 154° |
| 2026-05-08 11:02 | -5.02358 | 106.69727 | 27625 ft | 445 kts | 155° |
| 2026-05-08 11:02 | -5.05125 | 106.70982 | 27085 ft | 441 kts | 154° |
| 2026-05-08 11:03 | -5.07903 | 106.72246 | 26528 ft | 438 kts | 154° |
| 2026-05-08 11:03 | -5.10656 | 106.73502 | 25966 ft | 435 kts | 154° |
| 2026-05-08 11:03 | -5.13394 | 106.74747 | 25533 ft | 428 kts | 154° |
| 2026-05-08 11:03 | -5.16057 | 106.75960 | 25370 ft | 414 kts | 154° |
| 2026-05-08 11:04 | -5.18658 | 106.77143 | 25132 ft | 403 kts | 154° |
| 2026-05-08 11:04 | -5.21160 | 106.78274 | 24706 ft | 391 kts | 154° |
| 2026-05-08 11:04 | -5.23603 | 106.79377 | 24204 ft | 375 kts | 154° |
| 2026-05-08 11:04 | -5.25928 | 106.80428 | 23758 ft | 361 kts | 154° |
| 2026-05-08 11:05 | -5.28188 | 106.81452 | 23337 ft | 356 kts | 154° |
| 2026-05-08 11:05 | -5.30412 | 106.82461 | 22919 ft | 354 kts | 154° |
| 2026-05-08 11:05 | -5.32640 | 106.83472 | 22503 ft | 352 kts | 154° |
| 2026-05-08 11:05 | -5.34890 | 106.84493 | 22084 ft | 351 kts | 154° |
| 2026-05-08 11:06 | -5.37112 | 106.85500 | 21667 ft | 349 kts | 154° |
| 2026-05-08 11:06 | -5.39326 | 106.86504 | 21254 ft | 347 kts | 154° |
| 2026-05-08 11:06 | -5.41485 | 106.87483 | 21019 ft | 339 kts | 154° |
| 2026-05-08 11:06 | -5.43642 | 106.88432 | 20873 ft | 342 kts | 159° |
| 2026-05-08 11:07 | -5.46012 | 106.88789 | 20297 ft | 356 kts | 185° |
| 2026-05-08 11:07 | -5.48361 | 106.88052 | 19711 ft | 360 kts | 211° |
| 2026-05-08 11:07 | -5.50251 | 106.86420 | 19143 ft | 356 kts | 226° |
| 2026-05-08 11:07 | -5.51880 | 106.84585 | 18566 ft | 353 kts | 228° |
| 2026-05-08 11:08 | -5.53496 | 106.82752 | 17988 ft | 349 kts | 227° |
| 2026-05-08 11:08 | -5.55144 | 106.80952 | 17410 ft | 346 kts | 226° |
| 2026-05-08 11:08 | -5.56772 | 106.79230 | 16845 ft | 344 kts | 226° |
| 2026-05-08 11:08 | -5.58370 | 106.77575 | 16288 ft | 347 kts | 225° |
| 2026-05-08 11:09 | -5.60103 | 106.75803 | 15788 ft | 347 kts | 225° |
| 2026-05-08 11:09 | -5.61789 | 106.74091 | 15389 ft | 345 kts | 225° |
| 2026-05-08 11:09 | -5.63458 | 106.72405 | 14987 ft | 343 kts | 225° |
| 2026-05-08 11:09 | -5.65149 | 106.70699 | 14575 ft | 341 kts | 225° |
| 2026-05-08 11:10 | -5.66819 | 106.69017 | 14166 ft | 340 kts | 225° |
| 2026-05-08 11:10 | -5.68468 | 106.67357 | 13761 ft | 338 kts | 225° |
| 2026-05-08 11:10 | -5.70120 | 106.65696 | 13353 ft | 336 kts | 225° |
| 2026-05-08 11:10 | -5.71759 | 106.64047 | 12948 ft | 334 kts | 225° |
| 2026-05-08 11:11 | -5.73383 | 106.62413 | 12544 ft | 332 kts | 225° |
| 2026-05-08 11:11 | -5.75012 | 106.60774 | 12127 ft | 331 kts | 225° |
| 2026-05-08 11:11 | -5.76645 | 106.59132 | 11714 ft | 329 kts | 225° |
| 2026-05-08 11:11 | -5.78238 | 106.57529 | 11311 ft | 327 kts | 225° |
| 2026-05-08 11:12 | -5.79863 | 106.55894 | 10897 ft | 325 kts | 225° |
| 2026-05-08 11:12 | -5.81450 | 106.54298 | 10493 ft | 324 kts | 225° |
| 2026-05-08 11:12 | -5.83037 | 106.52701 | 10173 ft | 318 kts | 225° |
| 2026-05-08 11:12 | -5.84570 | 106.51160 | 10096 ft | 304 kts | 225° |
| 2026-05-08 11:13 | -5.86010 | 106.49711 | 10024 ft | 291 kts | 225° |
| 2026-05-08 11:13 | -5.87432 | 106.48282 | 9796 ft | 287 kts | 225° |
| 2026-05-08 11:13 | -5.88828 | 106.46878 | 9463 ft | 285 kts | 225° |
| 2026-05-08 11:13 | -5.90248 | 106.45449 | 9132 ft | 284 kts | 225° |
| 2026-05-08 11:14 | -5.91657 | 106.44031 | 8807 ft | 282 kts | 225° |
| 2026-05-08 11:14 | -5.93036 | 106.42644 | 8492 ft | 280 kts | 225° |
| 2026-05-08 11:14 | -5.94402 | 106.41270 | 8180 ft | 278 kts | 225° |
| 2026-05-08 11:14 | -5.95769 | 106.39894 | 7868 ft | 276 kts | 225° |
| 2026-05-08 11:15 | -5.97125 | 106.38530 | 7559 ft | 274 kts | 225° |
| 2026-05-08 11:15 | -5.98465 | 106.37180 | 7254 ft | 273 kts | 225° |
| 2026-05-08 11:15 | -5.99791 | 106.35846 | 7018 ft | 267 kts | 225° |
| 2026-05-08 11:15 | -6.01081 | 106.34545 | 6989 ft | 252 kts | 225° |
| 2026-05-08 11:16 | -6.02327 | 106.33279 | 6986 ft | 243 kts | 225° |
| 2026-05-08 11:16 | -6.03556 | 106.32064 | 6974 ft | 243 kts | 218° |
| 2026-05-08 11:16 | -6.05106 | 106.31400 | 6967 ft | 242 kts | 182° |
| 2026-05-08 11:16 | -6.06795 | 106.31570 | 6700 ft | 242 kts | 168° |
| 2026-05-08 11:17 | -6.08485 | 106.31922 | 6429 ft | 239 kts | 167° |
| 2026-05-08 11:17 | -6.10105 | 106.32261 | 6183 ft | 237 kts | 168° |
| 2026-05-08 11:17 | -6.11703 | 106.32572 | 5911 ft | 236 kts | 168° |
| 2026-05-08 11:17 | -6.13356 | 106.32877 | 5649 ft | 235 kts | 169° |
| 2026-05-08 11:18 | -6.14983 | 106.33169 | 5447 ft | 235 kts | 169° |
| 2026-05-08 11:18 | -6.16630 | 106.33461 | 5242 ft | 234 kts | 169° |
| 2026-05-08 11:18 | -6.18258 | 106.33749 | 5039 ft | 234 kts | 169° |
| 2026-05-08 11:18 | -6.19859 | 106.34059 | 4834 ft | 233 kts | 161° |
| 2026-05-08 11:19 | -6.21216 | 106.34990 | 4615 ft | 227 kts | 126° |
| 2026-05-08 11:19 | -6.22089 | 106.36350 | 4421 ft | 220 kts | 118° |
| 2026-05-08 11:19 | -6.22838 | 106.37684 | 4289 ft | 211 kts | 118° |
| 2026-05-08 11:19 | -6.23569 | 106.39019 | 4138 ft | 205 kts | 108° |
| 2026-05-08 11:20 | -6.23681 | 106.40511 | 4009 ft | 204 kts | 78° |
| 2026-05-08 11:20 | -6.23255 | 106.41954 | 4004 ft | 204 kts | 68° |
| 2026-05-08 11:20 | -6.22716 | 106.43301 | 3995 ft | 204 kts | 66° |
| 2026-05-08 11:20 | -6.22139 | 106.44681 | 3982 ft | 204 kts | 66° |
| 2026-05-08 11:21 | -6.21566 | 106.46066 | 3843 ft | 200 kts | 67° |
| 2026-05-08 11:21 | -6.21025 | 106.47397 | 3619 ft | 189 kts | 67° |
| 2026-05-08 11:21 | -6.20533 | 106.48621 | 3325 ft | 179 kts | 67° |
| 2026-05-08 11:21 | -6.20055 | 106.49817 | 3046 ft | 170 kts | 67° |
| 2026-05-08 11:22 | -6.19605 | 106.50949 | 2793 ft | 159 kts | 67° |
| 2026-05-08 11:22 | -6.19192 | 106.51986 | 2584 ft | 153 kts | 67° |
| 2026-05-08 11:22 | -6.18790 | 106.52993 | 2378 ft | 150 kts | 67° |
| 2026-05-08 11:22 | -6.18391 | 106.53996 | 2181 ft | 150 kts | 67° |
| 2026-05-08 11:23 | -6.17999 | 106.54977 | 1990 ft | 149 kts | 67° |
| 2026-05-08 11:23 | -6.17608 | 106.55959 | 1797 ft | 149 kts | 67° |
| 2026-05-08 11:23 | -6.17225 | 106.56921 | 1604 ft | 149 kts | 67° |
| 2026-05-08 11:23 | -6.16840 | 106.57886 | 1407 ft | 148 kts | 67° |
| 2026-05-08 11:24 | -6.16458 | 106.58844 | 1209 ft | 148 kts | 67° |
| 2026-05-08 11:24 | -6.16075 | 106.59806 | 1008 ft | 147 kts | 67° |
| 2026-05-08 11:24 | -6.15691 | 106.60767 | 809 ft | 147 kts | 67° |
| 2026-05-08 11:24 | -6.15303 | 106.61742 | 605 ft | 147 kts | 67° |
| 2026-05-08 11:25 | -6.14912 | 106.62708 | 407 ft | 146 kts | 66° |
| 2026-05-08 11:25 | -6.14532 | 106.63644 | 224 ft | 145 kts | 68° |
| 2026-05-08 11:25 | -6.14153 | 106.64612 | 52 ft | 144 kts | 67° |
| 2026-05-08 11:25 | -6.13809 | 106.65476 | 43 ft | 109 kts | 68° |
| 2026-05-08 11:26 | -6.13584 | 106.66044 | 43 ft | 51 kts | 67° |
| 2026-05-08 11:26 | -6.13443 | 106.66255 | 43 ft | 22 kts | 42° |
| 2026-05-08 11:26 | -6.13340 | 106.66316 | 43 ft | 11 kts | 359° |
| 2026-05-08 11:26 | -6.13269 | 106.66288 | 43 ft | 11 kts | 336° |
| 2026-05-08 11:27 | -6.13218 | 106.66233 | 43 ft | 11 kts | 264° |
| 2026-05-08 11:27 | -6.13248 | 106.66153 | 43 ft | 12 kts | 248° |
| 2026-05-08 11:27 | -6.13281 | 106.66067 | 43 ft | 12 kts | 249° |
| 2026-05-08 11:27 | -6.13314 | 106.65981 | 43 ft | 13 kts | 249° |
| 2026-05-08 11:28 | -6.13348 | 106.65894 | 43 ft | 13 kts | 247° |
| 2026-05-08 11:28 | -6.13387 | 106.65799 | 43 ft | 15 kts | 248° |
| 2026-05-08 11:28 | -6.13431 | 106.65691 | 43 ft | 17 kts | 248° |
| 2026-05-08 11:28 | -6.13479 | 106.65567 | 43 ft | 19 kts | 249° |
| 2026-05-08 11:29 | -6.13532 | 106.65432 | 43 ft | 20 kts | 249° |
| 2026-05-08 11:29 | -6.13586 | 106.65295 | 43 ft | 20 kts | 248° |
| 2026-05-08 11:29 | -6.13642 | 106.65157 | 43 ft | 19 kts | 248° |
| 2026-05-08 11:29 | -6.13669 | 106.65054 | 43 ft | 12 kts | 289° |
| 2026-05-08 11:30 | -6.13601 | 106.65013 | 43 ft | 11 kts | 338° |
| 2026-05-08 11:30 | -6.13515 | 106.64978 | 43 ft | 14 kts | 338° |
| 2026-05-08 11:30 | -6.13419 | 106.64941 | 43 ft | 15 kts | 339° |
| 2026-05-08 11:30 | -6.13319 | 106.64901 | 43 ft | 15 kts | 338° |
| 2026-05-08 11:31 | -6.13221 | 106.64861 | 43 ft | 14 kts | 339° |
| 2026-05-08 11:31 | -6.13119 | 106.64820 | 43 ft | 16 kts | 339° |
| 2026-05-08 11:31 | -6.13005 | 106.64777 | 43 ft | 17 kts | 338° |
| 2026-05-08 11:31 | -6.12891 | 106.64731 | 43 ft | 17 kts | 338° |
| 2026-05-08 11:32 | -6.12775 | 106.64685 | 43 ft | 16 kts | 338° |
| 2026-05-08 11:32 | -6.12691 | 106.64685 | 43 ft | 11 kts | 54° |
| 2026-05-08 11:32 | -6.12660 | 106.64761 | 43 ft | 12 kts | 68° |
| 2026-05-08 11:32 | -6.12627 | 106.64842 | 43 ft | 12 kts | 63° |
| 2026-05-08 11:33 | -6.12552 | 106.64874 | 43 ft | 12 kts | 334° |
| 2026-05-08 11:33 | -6.12483 | 106.64842 | 43 ft | 0 kts | 336° |
| 2026-05-08 11:33 | -6.12482 | 106.64841 | 43 ft | 0 kts | 340° |
| 2026-05-08 11:34 | -6.12477 | 106.64841 | 43 ft | 1 kts | 351° |
| 2026-05-08 11:34 | -6.12467 | 106.64844 | 43 ft | 1 kts | 38° |
| 2026-05-08 11:34 | -6.12464 | 106.64852 | 43 ft | 1 kts | 87° |
| 2026-05-08 11:34 | -6.12463 | 106.64875 | 43 ft | 5 kts | 87° |
| 2026-05-08 11:35 | -6.12453 | 106.64924 | 43 ft | 6 kts | 69° |
| 2026-05-08 11:35 | -6.12446 | 106.64942 | 43 ft | 0 kts | 68° |